sensor_id;sensor_type;location;lat;lon;timestamp;P1;durP1;ratioP1;P2;durP2;ratioP2
1154;SDS011;566;48.414;9.118;2023-07-20T00:00:01;7.30;;;2.55;;
1154;SDS011;566;48.414;9.118;2023-07-20T00:02:27;8.13;;;3.00;;
1154;SDS011;566;48.414;9.118;2023-07-20T00:04:53;6.18;;;2.75;;
1154;SDS011;566;48.414;9.118;2023-07-20T00:07:18;6.95;;;3.35;;
1154;SDS011;566;48.414;9.118;2023-07-20T00:09:44;8.13;;;3.20;;
1154;SDS011;566;48.414;9.118;2023-07-20T00:12:09;6.72;;;3.30;;
1154;SDS011;566;48.414;9.118;2023-07-20T00:14:38;5.90;;;3.00;;
1154;SDS011;566;48.414;9.118;2023-07-20T00:17:04;6.80;;;3.35;;
1154;SDS011;566;48.414;9.118;2023-07-20T00:19:30;8.38;;;3.53;;
1154;SDS011;566;48.414;9.118;2023-07-20T00:21:57;7.22;;;3.15;;
1154;SDS011;566;48.414;9.118;2023-07-20T00:24:23;11.63;;;3.47;;
1154;SDS011;566;48.414;9.118;2023-07-20T00:26:48;8.77;;;3.45;;
1154;SDS011;566;48.414;9.118;2023-07-20T00:29:14;7.85;;;3.22;;
1154;SDS011;566;48.414;9.118;2023-07-20T00:31:40;11.75;;;3.75;;
1154;SDS011;566;48.414;9.118;2023-07-20T00:34:06;9.88;;;3.75;;
1154;SDS011;566;48.414;9.118;2023-07-20T00:36:32;7.50;;;3.10;;
1154;SDS011;566;48.414;9.118;2023-07-20T00:38:57;6.80;;;2.88;;
1154;SDS011;566;48.414;9.118;2023-07-20T00:41:23;8.15;;;2.95;;
1154;SDS011;566;48.414;9.118;2023-07-20T00:43:49;6.18;;;3.20;;
1154;SDS011;566;48.414;9.118;2023-07-20T00:46:15;10.98;;;3.42;;
1154;SDS011;566;48.414;9.118;2023-07-20T00:48:41;6.85;;;2.97;;
1154;SDS011;566;48.414;9.118;2023-07-20T00:51:07;6.78;;;3.15;;
1154;SDS011;566;48.414;9.118;2023-07-20T00:53:34;8.13;;;3.45;;
1154;SDS011;566;48.414;9.118;2023-07-20T00:56:00;6.68;;;3.10;;
1154;SDS011;566;48.414;9.118;2023-07-20T00:58:25;8.48;;;3.55;;
1154;SDS011;566;48.414;9.118;2023-07-20T01:00:51;6.40;;;3.10;;
1154;SDS011;566;48.414;9.118;2023-07-20T01:03:16;7.28;;;3.38;;
1154;SDS011;566;48.414;9.118;2023-07-20T01:05:50;7.50;;;3.53;;
1154;SDS011;566;48.414;9.118;2023-07-20T01:08:38;7.10;;;3.13;;
1154;SDS011;566;48.414;9.118;2023-07-20T01:11:28;6.88;;;3.47;;
1154;SDS011;566;48.414;9.118;2023-07-20T01:14:04;7.45;;;3.10;;
1154;SDS011;566;48.414;9.118;2023-07-20T01:16:30;8.15;;;3.33;;
1154;SDS011;566;48.414;9.118;2023-07-20T01:18:56;8.60;;;3.65;;
1154;SDS011;566;48.414;9.118;2023-07-20T01:21:24;8.13;;;3.97;;
1154;SDS011;566;48.414;9.118;2023-07-20T01:24:05;6.97;;;3.40;;
1154;SDS011;566;48.414;9.118;2023-07-20T01:29:22;6.75;;;3.38;;
1154;SDS011;566;48.414;9.118;2023-07-20T01:31:55;7.53;;;3.38;;
1154;SDS011;566;48.414;9.118;2023-07-20T01:34:22;7.65;;;3.40;;
1154;SDS011;566;48.414;9.118;2023-07-20T01:36:49;6.10;;;3.47;;
1154;SDS011;566;48.414;9.118;2023-07-20T01:39:17;6.30;;;3.33;;
1154;SDS011;566;48.414;9.118;2023-07-20T01:41:47;10.63;;;3.42;;
1154;SDS011;566;48.414;9.118;2023-07-20T01:44:13;8.68;;;3.53;;
1154;SDS011;566;48.414;9.118;2023-07-20T01:46:38;7.50;;;3.67;;
1154;SDS011;566;48.414;9.118;2023-07-20T01:49:04;8.13;;;3.60;;
1154;SDS011;566;48.414;9.118;2023-07-20T01:51:29;7.80;;;3.85;;
1154;SDS011;566;48.414;9.118;2023-07-20T01:53:55;9.98;;;3.70;;
1154;SDS011;566;48.414;9.118;2023-07-20T01:56:21;9.05;;;3.50;;
1154;SDS011;566;48.414;9.118;2023-07-20T01:58:46;8.02;;;3.85;;
1154;SDS011;566;48.414;9.118;2023-07-20T02:01:12;6.97;;;3.42;;
1154;SDS011;566;48.414;9.118;2023-07-20T02:03:37;7.00;;;3.70;;
1154;SDS011;566;48.414;9.118;2023-07-20T02:06:03;7.30;;;3.70;;
1154;SDS011;566;48.414;9.118;2023-07-20T02:08:28;9.07;;;3.80;;
1154;SDS011;566;48.414;9.118;2023-07-20T02:10:54;8.23;;;3.10;;
1154;SDS011;566;48.414;9.118;2023-07-20T02:13:19;7.50;;;3.58;;
1154;SDS011;566;48.414;9.118;2023-07-20T02:15:45;7.07;;;3.70;;
1154;SDS011;566;48.414;9.118;2023-07-20T02:18:12;9.43;;;3.35;;
1154;SDS011;566;48.414;9.118;2023-07-20T02:20:38;8.68;;;3.88;;
1154;SDS011;566;48.414;9.118;2023-07-20T02:23:05;9.63;;;3.58;;
1154;SDS011;566;48.414;9.118;2023-07-20T02:25:31;10.02;;;3.95;;
1154;SDS011;566;48.414;9.118;2023-07-20T02:27:56;6.60;;;3.53;;
1154;SDS011;566;48.414;9.118;2023-07-20T02:30:25;6.72;;;3.25;;
1154;SDS011;566;48.414;9.118;2023-07-20T02:32:51;7.97;;;3.60;;
1154;SDS011;566;48.414;9.118;2023-07-20T02:35:16;9.23;;;3.88;;
1154;SDS011;566;48.414;9.118;2023-07-20T02:37:42;8.68;;;3.63;;
1154;SDS011;566;48.414;9.118;2023-07-20T02:40:07;9.05;;;3.90;;
1154;SDS011;566;48.414;9.118;2023-07-20T02:42:34;8.23;;;3.70;;
1154;SDS011;566;48.414;9.118;2023-07-20T02:45:00;10.63;;;3.80;;
1154;SDS011;566;48.414;9.118;2023-07-20T02:47:26;7.68;;;3.92;;
1154;SDS011;566;48.414;9.118;2023-07-20T02:49:52;9.02;;;3.88;;
1154;SDS011;566;48.414;9.118;2023-07-20T02:52:17;7.90;;;3.50;;
1154;SDS011;566;48.414;9.118;2023-07-20T02:54:43;7.63;;;4.20;;
1154;SDS011;566;48.414;9.118;2023-07-20T02:57:08;9.60;;;3.72;;
1154;SDS011;566;48.414;9.118;2023-07-20T02:59:34;10.82;;;4.25;;
1154;SDS011;566;48.414;9.118;2023-07-20T03:01:59;10.18;;;4.00;;
1154;SDS011;566;48.414;9.118;2023-07-20T03:04:25;7.68;;;4.10;;
1154;SDS011;566;48.414;9.118;2023-07-20T03:06:52;6.53;;;4.10;;
1154;SDS011;566;48.414;9.118;2023-07-20T03:09:17;8.07;;;3.80;;
1154;SDS011;566;48.414;9.118;2023-07-20T03:11:43;6.75;;;4.00;;
1154;SDS011;566;48.414;9.118;2023-07-20T03:14:09;9.18;;;3.65;;
1154;SDS011;566;48.414;9.118;2023-07-20T03:16:35;6.85;;;3.70;;
1154;SDS011;566;48.414;9.118;2023-07-20T03:19:01;8.02;;;3.90;;
1154;SDS011;566;48.414;9.118;2023-07-20T03:21:27;9.55;;;4.03;;
1154;SDS011;566;48.414;9.118;2023-07-20T03:23:53;7.85;;;4.03;;
1154;SDS011;566;48.414;9.118;2023-07-20T03:26:19;6.80;;;3.67;;
1154;SDS011;566;48.414;9.118;2023-07-20T03:28:45;7.65;;;3.97;;
1154;SDS011;566;48.414;9.118;2023-07-20T03:31:20;6.18;;;3.22;;
1154;SDS011;566;48.414;9.118;2023-07-20T03:33:45;7.95;;;4.00;;
1154;SDS011;566;48.414;9.118;2023-07-20T03:36:11;8.10;;;3.58;;
1154;SDS011;566;48.414;9.118;2023-07-20T03:38:37;9.60;;;4.22;;
1154;SDS011;566;48.414;9.118;2023-07-20T03:41:02;9.18;;;4.22;;
1154;SDS011;566;48.414;9.118;2023-07-20T03:43:28;7.65;;;3.88;;
1154;SDS011;566;48.414;9.118;2023-07-20T03:45:54;8.15;;;3.67;;
1154;SDS011;566;48.414;9.118;2023-07-20T03:48:20;6.45;;;3.40;;
1154;SDS011;566;48.414;9.118;2023-07-20T03:50:49;7.63;;;3.88;;
1154;SDS011;566;48.414;9.118;2023-07-20T03:53:19;8.88;;;3.58;;
1154;SDS011;566;48.414;9.118;2023-07-20T03:55:45;8.13;;;4.38;;
1154;SDS011;566;48.414;9.118;2023-07-20T03:58:12;9.40;;;4.10;;
1154;SDS011;566;48.414;9.118;2023-07-20T04:00:38;9.18;;;4.15;;
1154;SDS011;566;48.414;9.118;2023-07-20T04:03:04;7.53;;;3.63;;
1154;SDS011;566;48.414;9.118;2023-07-20T04:05:30;8.13;;;3.53;;
1154;SDS011;566;48.414;9.118;2023-07-20T04:07:56;8.95;;;4.13;;
1154;SDS011;566;48.414;9.118;2023-07-20T04:10:21;6.55;;;4.00;;
1154;SDS011;566;48.414;9.118;2023-07-20T04:12:47;7.18;;;3.95;;
1154;SDS011;566;48.414;9.118;2023-07-20T04:15:13;7.38;;;3.47;;
1154;SDS011;566;48.414;9.118;2023-07-20T04:17:39;8.25;;;3.60;;
1154;SDS011;566;48.414;9.118;2023-07-20T04:20:05;6.53;;;3.53;;
1154;SDS011;566;48.414;9.118;2023-07-20T04:22:32;10.65;;;3.72;;
1154;SDS011;566;48.414;9.118;2023-07-20T04:25:00;6.75;;;3.65;;
1154;SDS011;566;48.414;9.118;2023-07-20T04:27:29;7.78;;;4.15;;
1154;SDS011;566;48.414;9.118;2023-07-20T04:29:54;6.65;;;3.63;;
1154;SDS011;566;48.414;9.118;2023-07-20T04:32:20;8.73;;;3.72;;
1154;SDS011;566;48.414;9.118;2023-07-20T04:34:46;6.93;;;4.03;;
1154;SDS011;566;48.414;9.118;2023-07-20T04:37:11;7.82;;;3.58;;
1154;SDS011;566;48.414;9.118;2023-07-20T04:39:37;8.13;;;3.53;;
1154;SDS011;566;48.414;9.118;2023-07-20T04:42:03;8.07;;;3.75;;
1154;SDS011;566;48.414;9.118;2023-07-20T04:44:28;9.77;;;3.80;;
1154;SDS011;566;48.414;9.118;2023-07-20T04:46:54;8.52;;;3.38;;
1154;SDS011;566;48.414;9.118;2023-07-20T04:49:19;6.80;;;3.30;;
1154;SDS011;566;48.414;9.118;2023-07-20T04:51:45;11.27;;;3.55;;
1154;SDS011;566;48.414;9.118;2023-07-20T04:54:11;7.13;;;4.00;;
1154;SDS011;566;48.414;9.118;2023-07-20T04:56:36;7.63;;;3.85;;
1154;SDS011;566;48.414;9.118;2023-07-20T04:59:02;7.28;;;3.90;;
1154;SDS011;566;48.414;9.118;2023-07-20T05:01:27;6.82;;;3.30;;
1154;SDS011;566;48.414;9.118;2023-07-20T05:03:53;9.50;;;3.58;;
1154;SDS011;566;48.414;9.118;2023-07-20T05:06:18;8.27;;;4.00;;
1154;SDS011;566;48.414;9.118;2023-07-20T05:08:44;7.10;;;3.55;;
1154;SDS011;566;48.414;9.118;2023-07-20T05:11:10;7.68;;;3.35;;
1154;SDS011;566;48.414;9.118;2023-07-20T05:13:36;6.05;;;3.25;;
1154;SDS011;566;48.414;9.118;2023-07-20T05:16:02;5.82;;;3.25;;
1154;SDS011;566;48.414;9.118;2023-07-20T05:18:28;8.02;;;3.40;;
1154;SDS011;566;48.414;9.118;2023-07-20T05:20:53;7.43;;;3.63;;
1154;SDS011;566;48.414;9.118;2023-07-20T05:23:20;7.05;;;3.00;;
1154;SDS011;566;48.414;9.118;2023-07-20T05:25:46;6.68;;;3.33;;
1154;SDS011;566;48.414;9.118;2023-07-20T05:28:18;8.90;;;4.05;;
1154;SDS011;566;48.414;9.118;2023-07-20T05:30:44;8.48;;;3.30;;
1154;SDS011;566;48.414;9.118;2023-07-20T05:33:09;7.97;;;3.22;;
1154;SDS011;566;48.414;9.118;2023-07-20T05:35:36;7.15;;;3.40;;
1154;SDS011;566;48.414;9.118;2023-07-20T05:38:01;6.60;;;3.70;;
1154;SDS011;566;48.414;9.118;2023-07-20T05:40:29;5.97;;;2.90;;
1154;SDS011;566;48.414;9.118;2023-07-20T05:42:54;6.22;;;2.97;;
1154;SDS011;566;48.414;9.118;2023-07-20T05:45:22;6.93;;;3.30;;
1154;SDS011;566;48.414;9.118;2023-07-20T05:47:47;6.35;;;2.90;;
1154;SDS011;566;48.414;9.118;2023-07-20T05:50:13;5.47;;;2.92;;
1154;SDS011;566;48.414;9.118;2023-07-20T05:52:39;6.50;;;3.20;;
1154;SDS011;566;48.414;9.118;2023-07-20T05:55:05;8.65;;;3.25;;
1154;SDS011;566;48.414;9.118;2023-07-20T05:57:32;6.05;;;3.08;;
1154;SDS011;566;48.414;9.118;2023-07-20T05:59:57;7.93;;;3.00;;
1154;SDS011;566;48.414;9.118;2023-07-20T06:02:23;9.20;;;3.33;;
1154;SDS011;566;48.414;9.118;2023-07-20T06:04:48;6.70;;;3.08;;
1154;SDS011;566;48.414;9.118;2023-07-20T06:07:14;6.90;;;2.97;;
1154;SDS011;566;48.414;9.118;2023-07-20T06:09:40;8.52;;;3.22;;
1154;SDS011;566;48.414;9.118;2023-07-20T06:12:06;5.78;;;2.85;;
1154;SDS011;566;48.414;9.118;2023-07-20T06:14:32;5.32;;;2.90;;
1154;SDS011;566;48.414;9.118;2023-07-20T06:16:58;6.20;;;3.28;;
1154;SDS011;566;48.414;9.118;2023-07-20T06:19:24;6.78;;;3.33;;
1154;SDS011;566;48.414;9.118;2023-07-20T06:21:49;7.28;;;2.72;;
1154;SDS011;566;48.414;9.118;2023-07-20T06:24:15;5.70;;;2.97;;
1154;SDS011;566;48.414;9.118;2023-07-20T06:26:41;7.18;;;2.95;;
1154;SDS011;566;48.414;9.118;2023-07-20T06:29:07;6.85;;;3.20;;
1154;SDS011;566;48.414;9.118;2023-07-20T06:31:36;6.78;;;2.90;;
1154;SDS011;566;48.414;9.118;2023-07-20T06:34:02;6.10;;;3.35;;
1154;SDS011;566;48.414;9.118;2023-07-20T06:36:28;7.00;;;2.88;;
1154;SDS011;566;48.414;9.118;2023-07-20T06:38:54;7.85;;;3.70;;
1154;SDS011;566;48.414;9.118;2023-07-20T06:41:21;8.00;;;2.80;;
1154;SDS011;566;48.414;9.118;2023-07-20T06:43:47;6.22;;;2.70;;
1154;SDS011;566;48.414;9.118;2023-07-20T06:46:13;5.35;;;2.65;;
1154;SDS011;566;48.414;9.118;2023-07-20T06:48:38;9.68;;;3.10;;
1154;SDS011;566;48.414;9.118;2023-07-20T06:51:04;9.70;;;2.83;;
1154;SDS011;566;48.414;9.118;2023-07-20T06:53:30;7.95;;;2.90;;
1154;SDS011;566;48.414;9.118;2023-07-20T06:55:56;6.78;;;3.20;;
1154;SDS011;566;48.414;9.118;2023-07-20T06:58:24;8.75;;;2.80;;
1154;SDS011;566;48.414;9.118;2023-07-20T07:00:50;5.50;;;2.70;;
1154;SDS011;566;48.414;9.118;2023-07-20T07:03:16;8.88;;;3.20;;
1154;SDS011;566;48.414;9.118;2023-07-20T07:05:43;8.23;;;3.08;;
1154;SDS011;566;48.414;9.118;2023-07-20T07:08:10;9.65;;;2.92;;
1154;SDS011;566;48.414;9.118;2023-07-20T07:10:35;6.85;;;2.80;;
1154;SDS011;566;48.414;9.118;2023-07-20T07:13:02;11.40;;;3.13;;
1154;SDS011;566;48.414;9.118;2023-07-20T07:15:27;5.78;;;3.22;;
1154;SDS011;566;48.414;9.118;2023-07-20T07:17:53;6.55;;;3.15;;
1154;SDS011;566;48.414;9.118;2023-07-20T07:20:19;8.00;;;3.28;;
1154;SDS011;566;48.414;9.118;2023-07-20T07:22:45;6.45;;;2.88;;
1154;SDS011;566;48.414;9.118;2023-07-20T07:25:12;7.97;;;3.15;;
1154;SDS011;566;48.414;9.118;2023-07-20T07:27:37;5.63;;;2.90;;
1154;SDS011;566;48.414;9.118;2023-07-20T07:30:03;5.93;;;3.10;;
1154;SDS011;566;48.414;9.118;2023-07-20T07:32:30;8.65;;;3.28;;
1154;SDS011;566;48.414;9.118;2023-07-20T07:34:55;7.95;;;3.17;;
1154;SDS011;566;48.414;9.118;2023-07-20T07:37:23;8.35;;;2.90;;
1154;SDS011;566;48.414;9.118;2023-07-20T07:39:49;7.40;;;3.33;;
1154;SDS011;566;48.414;9.118;2023-07-20T07:42:16;7.57;;;3.05;;
1154;SDS011;566;48.414;9.118;2023-07-20T07:44:52;8.98;;;3.55;;
1154;SDS011;566;48.414;9.118;2023-07-20T07:47:18;5.97;;;2.97;;
1154;SDS011;566;48.414;9.118;2023-07-20T07:49:49;9.80;;;3.30;;
1154;SDS011;566;48.414;9.118;2023-07-20T07:52:19;5.57;;;2.83;;
1154;SDS011;566;48.414;9.118;2023-07-20T07:54:52;10.63;;;3.03;;
1154;SDS011;566;48.414;9.118;2023-07-20T07:57:23;7.55;;;3.15;;
1154;SDS011;566;48.414;9.118;2023-07-20T08:00:05;8.20;;;3.20;;
1154;SDS011;566;48.414;9.118;2023-07-20T08:08:56;7.15;;;3.13;;
1154;SDS011;566;48.414;9.118;2023-07-20T08:11:23;7.45;;;3.00;;
1154;SDS011;566;48.414;9.118;2023-07-20T08:13:49;12.82;;;2.85;;
1154;SDS011;566;48.414;9.118;2023-07-20T08:16:15;6.03;;;2.85;;
1154;SDS011;566;48.414;9.118;2023-07-20T08:18:40;9.98;;;3.35;;
1154;SDS011;566;48.414;9.118;2023-07-20T08:21:06;7.15;;;2.80;;
1154;SDS011;566;48.414;9.118;2023-07-20T08:23:32;4.68;;;2.90;;
1154;SDS011;566;48.414;9.118;2023-07-20T08:26:00;5.80;;;3.00;;
1154;SDS011;566;48.414;9.118;2023-07-20T08:28:26;5.85;;;2.97;;
1154;SDS011;566;48.414;9.118;2023-07-20T08:30:52;6.43;;;2.70;;
1154;SDS011;566;48.414;9.118;2023-07-20T08:33:18;5.68;;;2.85;;
1154;SDS011;566;48.414;9.118;2023-07-20T08:35:44;7.68;;;3.30;;
1154;SDS011;566;48.414;9.118;2023-07-20T08:38:11;6.78;;;3.30;;
1154;SDS011;566;48.414;9.118;2023-07-20T08:40:41;5.22;;;2.58;;
1154;SDS011;566;48.414;9.118;2023-07-20T08:43:08;5.97;;;3.15;;
1154;SDS011;566;48.414;9.118;2023-07-20T08:45:38;9.88;;;3.28;;
1154;SDS011;566;48.414;9.118;2023-07-20T08:48:05;8.18;;;2.95;;
1154;SDS011;566;48.414;9.118;2023-07-20T08:50:31;8.75;;;2.70;;
1154;SDS011;566;48.414;9.118;2023-07-20T08:52:58;8.98;;;3.17;;
1154;SDS011;566;48.414;9.118;2023-07-20T08:55:28;7.90;;;2.90;;
1154;SDS011;566;48.414;9.118;2023-07-20T08:57:54;7.57;;;3.10;;
1154;SDS011;566;48.414;9.118;2023-07-20T09:00:25;7.63;;;3.10;;
1154;SDS011;566;48.414;9.118;2023-07-20T09:02:54;6.05;;;2.58;;
1154;SDS011;566;48.414;9.118;2023-07-20T09:05:22;10.15;;;2.78;;
1154;SDS011;566;48.414;9.118;2023-07-20T09:07:48;8.15;;;3.08;;
1154;SDS011;566;48.414;9.118;2023-07-20T09:10:14;7.40;;;2.92;;
1154;SDS011;566;48.414;9.118;2023-07-20T09:12:43;6.30;;;2.22;;
1154;SDS011;566;48.414;9.118;2023-07-20T09:15:09;8.23;;;2.70;;
1154;SDS011;566;48.414;9.118;2023-07-20T09:17:36;6.25;;;2.40;;
1154;SDS011;566;48.414;9.118;2023-07-20T09:20:05;7.63;;;2.40;;
1154;SDS011;566;48.414;9.118;2023-07-20T09:22:33;4.40;;;2.25;;
1154;SDS011;566;48.414;9.118;2023-07-20T09:24:58;5.28;;;2.22;;
1154;SDS011;566;48.414;9.118;2023-07-20T09:27:37;5.38;;;2.63;;
1154;SDS011;566;48.414;9.118;2023-07-20T09:30:04;5.18;;;2.25;;
1154;SDS011;566;48.414;9.118;2023-07-20T09:32:32;5.07;;;2.50;;
1154;SDS011;566;48.414;9.118;2023-07-20T09:35:16;5.55;;;2.50;;
1154;SDS011;566;48.414;9.118;2023-07-20T09:37:50;6.32;;;2.60;;
1154;SDS011;566;48.414;9.118;2023-07-20T09:40:28;10.07;;;2.65;;
1154;SDS011;566;48.414;9.118;2023-07-20T09:42:54;10.07;;;2.70;;
1154;SDS011;566;48.414;9.118;2023-07-20T09:45:28;5.80;;;2.38;;
1154;SDS011;566;48.414;9.118;2023-07-20T09:48:05;8.68;;;2.75;;
1154;SDS011;566;48.414;9.118;2023-07-20T09:50:34;6.18;;;2.50;;
1154;SDS011;566;48.414;9.118;2023-07-20T09:53:11;4.65;;;2.15;;
1154;SDS011;566;48.414;9.118;2023-07-20T09:55:40;5.45;;;1.95;;
1154;SDS011;566;48.414;9.118;2023-07-20T09:58:09;5.10;;;1.90;;
1154;SDS011;566;48.414;9.118;2023-07-20T10:00:36;6.32;;;2.22;;
1154;SDS011;566;48.414;9.118;2023-07-20T10:03:03;7.63;;;2.00;;
1154;SDS011;566;48.414;9.118;2023-07-20T10:05:33;5.10;;;1.88;;
1154;SDS011;566;48.414;9.118;2023-07-20T10:08:01;5.00;;;2.10;;
1154;SDS011;566;48.414;9.118;2023-07-20T10:10:29;5.25;;;1.90;;
1154;SDS011;566;48.414;9.118;2023-07-20T10:12:56;7.07;;;2.10;;
1154;SDS011;566;48.414;9.118;2023-07-20T10:15:32;4.93;;;1.83;;
1154;SDS011;566;48.414;9.118;2023-07-20T10:18:07;4.80;;;1.92;;
1154;SDS011;566;48.414;9.118;2023-07-20T10:20:39;6.32;;;1.92;;
1154;SDS011;566;48.414;9.118;2023-07-20T10:23:08;4.95;;;1.95;;
1154;SDS011;566;48.414;9.118;2023-07-20T10:25:35;4.45;;;2.10;;
1154;SDS011;566;48.414;9.118;2023-07-20T10:28:06;6.68;;;2.08;;
1154;SDS011;566;48.414;9.118;2023-07-20T10:30:32;6.65;;;2.08;;
1154;SDS011;566;48.414;9.118;2023-07-20T10:33:00;5.20;;;2.25;;
1154;SDS011;566;48.414;9.118;2023-07-20T10:35:27;4.63;;;1.92;;
1154;SDS011;566;48.414;9.118;2023-07-20T10:37:54;4.43;;;2.10;;
1154;SDS011;566;48.414;9.118;2023-07-20T10:40:25;5.75;;;2.20;;
1154;SDS011;566;48.414;9.118;2023-07-20T10:42:56;11.82;;;2.75;;
1154;SDS011;566;48.414;9.118;2023-07-20T10:50:48;6.18;;;2.30;;
1154;SDS011;566;48.414;9.118;2023-07-20T10:53:41;6.88;;;2.10;;
1154;SDS011;566;48.414;9.118;2023-07-20T10:56:13;8.43;;;2.35;;
1154;SDS011;566;48.414;9.118;2023-07-20T10:58:44;5.70;;;2.20;;
1154;SDS011;566;48.414;9.118;2023-07-20T11:01:10;4.15;;;1.95;;
1154;SDS011;566;48.414;9.118;2023-07-20T11:03:39;4.20;;;2.00;;
1154;SDS011;566;48.414;9.118;2023-07-20T11:08:54;3.70;;;1.92;;
1154;SDS011;566;48.414;9.118;2023-07-20T11:11:31;5.45;;;2.08;;
1154;SDS011;566;48.414;9.118;2023-07-20T11:14:06;6.38;;;2.05;;
1154;SDS011;566;48.414;9.118;2023-07-20T11:19:00;4.80;;;2.00;;
1154;SDS011;566;48.414;9.118;2023-07-20T11:21:26;4.78;;;1.90;;
1154;SDS011;566;48.414;9.118;2023-07-20T11:23:55;5.35;;;2.13;;
1154;SDS011;566;48.414;9.118;2023-07-20T11:26:21;5.70;;;2.00;;
1154;SDS011;566;48.414;9.118;2023-07-20T11:28:50;7.45;;;1.85;;
1154;SDS011;566;48.414;9.118;2023-07-20T11:31:17;4.30;;;1.73;;
1154;SDS011;566;48.414;9.118;2023-07-20T11:33:43;4.35;;;2.00;;
1154;SDS011;566;48.414;9.118;2023-07-20T11:36:09;6.47;;;1.83;;
1154;SDS011;566;48.414;9.118;2023-07-20T11:38:35;6.97;;;1.70;;
1154;SDS011;566;48.414;9.118;2023-07-20T11:41:02;4.32;;;2.10;;
1154;SDS011;566;48.414;9.118;2023-07-20T11:43:28;5.40;;;1.92;;
1154;SDS011;566;48.414;9.118;2023-07-20T11:45:55;4.28;;;1.80;;
1154;SDS011;566;48.414;9.118;2023-07-20T11:48:20;4.85;;;1.95;;
1154;SDS011;566;48.414;9.118;2023-07-20T11:50:46;6.25;;;2.08;;
1154;SDS011;566;48.414;9.118;2023-07-20T11:53:12;4.05;;;1.90;;
1154;SDS011;566;48.414;9.118;2023-07-20T11:55:42;6.25;;;2.05;;
1154;SDS011;566;48.414;9.118;2023-07-20T11:58:08;4.97;;;2.03;;
1154;SDS011;566;48.414;9.118;2023-07-20T12:00:34;5.45;;;1.60;;
1154;SDS011;566;48.414;9.118;2023-07-20T12:03:05;4.70;;;2.13;;
1154;SDS011;566;48.414;9.118;2023-07-20T12:05:36;4.10;;;1.60;;
1154;SDS011;566;48.414;9.118;2023-07-20T12:08:03;6.22;;;1.90;;
1154;SDS011;566;48.414;9.118;2023-07-20T12:10:28;4.47;;;1.75;;
1154;SDS011;566;48.414;9.118;2023-07-20T12:12:55;4.88;;;1.73;;
1154;SDS011;566;48.414;9.118;2023-07-20T12:15:28;4.80;;;1.98;;
1154;SDS011;566;48.414;9.118;2023-07-20T12:18:01;4.18;;;1.85;;
1154;SDS011;566;48.414;9.118;2023-07-20T12:20:31;5.82;;;2.10;;
1154;SDS011;566;48.414;9.118;2023-07-20T12:23:00;4.30;;;1.70;;
1154;SDS011;566;48.414;9.118;2023-07-20T12:28:01;3.88;;;1.75;;
1154;SDS011;566;48.414;9.118;2023-07-20T12:30:29;3.72;;;1.55;;
1154;SDS011;566;48.414;9.118;2023-07-20T12:32:55;4.93;;;1.75;;
1154;SDS011;566;48.414;9.118;2023-07-20T12:35:20;3.67;;;1.50;;
1154;SDS011;566;48.414;9.118;2023-07-20T12:37:46;3.95;;;1.63;;
1154;SDS011;566;48.414;9.118;2023-07-20T12:40:14;4.57;;;1.60;;
1154;SDS011;566;48.414;9.118;2023-07-20T12:42:39;4.25;;;1.80;;
1154;SDS011;566;48.414;9.118;2023-07-20T12:45:05;5.47;;;1.70;;
1154;SDS011;566;48.414;9.118;2023-07-20T12:47:31;4.93;;;1.70;;
1154;SDS011;566;48.414;9.118;2023-07-20T12:49:56;4.13;;;1.75;;
1154;SDS011;566;48.414;9.118;2023-07-20T12:52:25;3.95;;;1.70;;
1154;SDS011;566;48.414;9.118;2023-07-20T12:54:50;4.28;;;1.70;;
1154;SDS011;566;48.414;9.118;2023-07-20T12:57:16;3.75;;;1.88;;
1154;SDS011;566;48.414;9.118;2023-07-20T12:59:42;3.97;;;1.60;;
1154;SDS011;566;48.414;9.118;2023-07-20T13:02:07;4.97;;;1.85;;
1154;SDS011;566;48.414;9.118;2023-07-20T13:04:33;4.38;;;1.60;;
1154;SDS011;566;48.414;9.118;2023-07-20T13:06:58;4.30;;;1.90;;
1154;SDS011;566;48.414;9.118;2023-07-20T13:09:24;5.43;;;1.90;;
1154;SDS011;566;48.414;9.118;2023-07-20T13:11:50;5.18;;;1.67;;
1154;SDS011;566;48.414;9.118;2023-07-20T13:14:17;3.53;;;1.58;;
1154;SDS011;566;48.414;9.118;2023-07-20T13:16:43;4.65;;;1.70;;
1154;SDS011;566;48.414;9.118;2023-07-20T13:19:08;3.83;;;1.70;;
1154;SDS011;566;48.414;9.118;2023-07-20T13:21:34;3.97;;;1.58;;
1154;SDS011;566;48.414;9.118;2023-07-20T13:24:00;7.05;;;1.88;;
1154;SDS011;566;48.414;9.118;2023-07-20T13:26:25;4.40;;;1.50;;
1154;SDS011;566;48.414;9.118;2023-07-20T13:28:51;4.55;;;1.63;;
1154;SDS011;566;48.414;9.118;2023-07-20T13:31:17;3.10;;;1.30;;
1154;SDS011;566;48.414;9.118;2023-07-20T13:33:42;4.43;;;1.80;;
1154;SDS011;566;48.414;9.118;2023-07-20T13:36:08;4.15;;;1.70;;
1154;SDS011;566;48.414;9.118;2023-07-20T13:38:34;5.25;;;1.65;;
1154;SDS011;566;48.414;9.118;2023-07-20T13:40:59;8.38;;;1.98;;
1154;SDS011;566;48.414;9.118;2023-07-20T13:43:25;6.97;;;1.70;;
1154;SDS011;566;48.414;9.118;2023-07-20T13:45:52;5.35;;;1.80;;
1154;SDS011;566;48.414;9.118;2023-07-20T13:48:18;3.70;;;1.48;;
1154;SDS011;566;48.414;9.118;2023-07-20T13:50:46;6.32;;;1.67;;
1154;SDS011;566;48.414;9.118;2023-07-20T13:53:11;3.75;;;1.38;;
1154;SDS011;566;48.414;9.118;2023-07-20T13:55:38;4.45;;;1.75;;
1154;SDS011;566;48.414;9.118;2023-07-20T13:58:03;4.32;;;1.67;;
1154;SDS011;566;48.414;9.118;2023-07-20T14:00:29;5.30;;;1.70;;
1154;SDS011;566;48.414;9.118;2023-07-20T14:03:01;4.32;;;1.60;;
1154;SDS011;566;48.414;9.118;2023-07-20T14:05:26;3.65;;;1.75;;
1154;SDS011;566;48.414;9.118;2023-07-20T14:07:53;5.90;;;1.80;;
1154;SDS011;566;48.414;9.118;2023-07-20T14:10:19;6.60;;;1.95;;
1154;SDS011;566;48.414;9.118;2023-07-20T14:12:45;5.15;;;1.77;;
1154;SDS011;566;48.414;9.118;2023-07-20T14:15:10;4.05;;;1.70;;
1154;SDS011;566;48.414;9.118;2023-07-20T14:17:36;5.22;;;1.65;;
1154;SDS011;566;48.414;9.118;2023-07-20T14:20:02;7.68;;;1.70;;
1154;SDS011;566;48.414;9.118;2023-07-20T14:22:31;5.47;;;1.48;;
1154;SDS011;566;48.414;9.118;2023-07-20T14:24:57;5.78;;;1.55;;
1154;SDS011;566;48.414;9.118;2023-07-20T14:27:23;4.07;;;1.45;;
1154;SDS011;566;48.414;9.118;2023-07-20T14:29:49;3.45;;;1.52;;
1154;SDS011;566;48.414;9.118;2023-07-20T14:32:15;4.82;;;1.70;;
1154;SDS011;566;48.414;9.118;2023-07-20T14:34:40;8.73;;;1.63;;
1154;SDS011;566;48.414;9.118;2023-07-20T14:37:06;5.28;;;1.73;;
1154;SDS011;566;48.414;9.118;2023-07-20T14:39:32;5.20;;;1.85;;
1154;SDS011;566;48.414;9.118;2023-07-20T14:41:57;4.13;;;1.50;;
1154;SDS011;566;48.414;9.118;2023-07-20T14:44:23;4.35;;;1.58;;
1154;SDS011;566;48.414;9.118;2023-07-20T14:46:49;4.75;;;1.83;;
1154;SDS011;566;48.414;9.118;2023-07-20T14:49:15;4.45;;;1.55;;
1154;SDS011;566;48.414;9.118;2023-07-20T14:51:41;3.60;;;1.48;;
1154;SDS011;566;48.414;9.118;2023-07-20T14:54:11;13.57;;;1.70;;
1154;SDS011;566;48.414;9.118;2023-07-20T14:56:38;6.55;;;1.75;;
1154;SDS011;566;48.414;9.118;2023-07-20T14:59:05;4.35;;;1.45;;
1154;SDS011;566;48.414;9.118;2023-07-20T15:01:31;6.57;;;1.45;;
1154;SDS011;566;48.414;9.118;2023-07-20T15:03:57;3.25;;;1.40;;
1154;SDS011;566;48.414;9.118;2023-07-20T15:06:25;4.82;;;1.88;;
1154;SDS011;566;48.414;9.118;2023-07-20T15:08:51;5.30;;;1.90;;
1154;SDS011;566;48.414;9.118;2023-07-20T15:11:17;7.70;;;1.73;;
1154;SDS011;566;48.414;9.118;2023-07-20T15:13:42;8.15;;;1.80;;
1154;SDS011;566;48.414;9.118;2023-07-20T15:16:08;6.13;;;1.63;;
1154;SDS011;566;48.414;9.118;2023-07-20T15:18:36;4.28;;;1.80;;
1154;SDS011;566;48.414;9.118;2023-07-20T15:21:01;5.18;;;1.75;;
1154;SDS011;566;48.414;9.118;2023-07-20T15:23:27;5.35;;;1.70;;
1154;SDS011;566;48.414;9.118;2023-07-20T15:25:53;3.65;;;1.90;;
1154;SDS011;566;48.414;9.118;2023-07-20T15:28:18;3.83;;;1.63;;
1154;SDS011;566;48.414;9.118;2023-07-20T15:30:44;3.65;;;1.40;;
1154;SDS011;566;48.414;9.118;2023-07-20T15:33:09;5.55;;;1.67;;
1154;SDS011;566;48.414;9.118;2023-07-20T15:35:35;4.85;;;1.83;;
1154;SDS011;566;48.414;9.118;2023-07-20T15:38:01;4.95;;;1.60;;
1154;SDS011;566;48.414;9.118;2023-07-20T15:40:27;4.70;;;1.38;;
1154;SDS011;566;48.414;9.118;2023-07-20T15:42:52;3.45;;;1.60;;
1154;SDS011;566;48.414;9.118;2023-07-20T15:45:18;6.13;;;1.92;;
1154;SDS011;566;48.414;9.118;2023-07-20T15:47:44;3.38;;;1.60;;
1154;SDS011;566;48.414;9.118;2023-07-20T15:50:10;4.72;;;1.60;;